sensor_id;sensor_type;location;lat;lon;timestamp;P1;durP1;ratioP1;P2;durP2;ratioP2
74660;SDS011;63191;39.566;2.654;2023-11-25T00:00:46;7.00;;;1.90;;
74660;SDS011;63191;39.566;2.654;2023-11-25T00:03:12;8.10;;;2.40;;
74660;SDS011;63191;39.566;2.654;2023-11-25T00:05:38;10.80;;;2.10;;
74660;SDS011;63191;39.566;2.654;2023-11-25T00:08:04;8.20;;;2.30;;
74660;SDS011;63191;39.566;2.654;2023-11-25T00:10:29;7.40;;;1.90;;
74660;SDS011;63191;39.566;2.654;2023-11-25T00:12:55;10.00;;;1.90;;
74660;SDS011;63191;39.566;2.654;2023-11-25T00:15:20;8.80;;;2.40;;
74660;SDS011;63191;39.566;2.654;2023-11-25T00:17:51;7.30;;;2.30;;
74660;SDS011;63191;39.566;2.654;2023-11-25T00:20:17;8.20;;;2.50;;
74660;SDS011;63191;39.566;2.654;2023-11-25T00:22:47;7.90;;;1.80;;
74660;SDS011;63191;39.566;2.654;2023-11-25T00:25:13;11.30;;;2.40;;
74660;SDS011;63191;39.566;2.654;2023-11-25T00:27:40;11.40;;;2.50;;
74660;SDS011;63191;39.566;2.654;2023-11-25T00:30:06;8.70;;;2.60;;
74660;SDS011;63191;39.566;2.654;2023-11-25T00:32:35;9.40;;;2.30;;
74660;SDS011;63191;39.566;2.654;2023-11-25T00:35:06;11.00;;;3.30;;
74660;SDS011;63191;39.566;2.654;2023-11-25T00:37:33;11.50;;;3.30;;
74660;SDS011;63191;39.566;2.654;2023-11-25T00:39:59;13.00;;;3.00;;
74660;SDS011;63191;39.566;2.654;2023-11-25T00:42:25;9.80;;;2.20;;
74660;SDS011;63191;39.566;2.654;2023-11-25T00:44:51;9.50;;;2.20;;
74660;SDS011;63191;39.566;2.654;2023-11-25T00:47:16;8.30;;;2.30;;
74660;SDS011;63191;39.566;2.654;2023-11-25T00:49:42;8.80;;;2.00;;
74660;SDS011;63191;39.566;2.654;2023-11-25T00:52:10;9.40;;;2.00;;
74660;SDS011;63191;39.566;2.654;2023-11-25T00:54:35;10.00;;;2.70;;
74660;SDS011;63191;39.566;2.654;2023-11-25T00:57:01;9.80;;;2.70;;
74660;SDS011;63191;39.566;2.654;2023-11-25T00:59:26;8.50;;;2.20;;
74660;SDS011;63191;39.566;2.654;2023-11-25T01:01:52;8.50;;;2.10;;
74660;SDS011;63191;39.566;2.654;2023-11-25T01:04:18;9.70;;;1.90;;
74660;SDS011;63191;39.566;2.654;2023-11-25T01:06:44;7.40;;;1.90;;
74660;SDS011;63191;39.566;2.654;2023-11-25T01:09:13;6.90;;;1.60;;
74660;SDS011;63191;39.566;2.654;2023-11-25T01:11:44;8.40;;;1.80;;
74660;SDS011;63191;39.566;2.654;2023-11-25T01:14:10;6.10;;;1.30;;
74660;SDS011;63191;39.566;2.654;2023-11-25T01:16:35;5.30;;;0.90;;
74660;SDS011;63191;39.566;2.654;2023-11-25T01:19:01;5.90;;;1.00;;
74660;SDS011;63191;39.566;2.654;2023-11-25T01:21:27;3.90;;;0.80;;
74660;SDS011;63191;39.566;2.654;2023-11-25T01:23:52;5.90;;;0.90;;
74660;SDS011;63191;39.566;2.654;2023-11-25T01:26:18;6.00;;;0.80;;
74660;SDS011;63191;39.566;2.654;2023-11-25T01:28:43;2.70;;;0.70;;
74660;SDS011;63191;39.566;2.654;2023-11-25T01:31:09;5.70;;;0.90;;
74660;SDS011;63191;39.566;2.654;2023-11-25T01:33:38;7.10;;;1.20;;
74660;SDS011;63191;39.566;2.654;2023-11-25T01:36:06;4.90;;;0.80;;
74660;SDS011;63191;39.566;2.654;2023-11-25T01:38:35;5.70;;;0.90;;
74660;SDS011;63191;39.566;2.654;2023-11-25T01:41:01;6.30;;;0.90;;
74660;SDS011;63191;39.566;2.654;2023-11-25T01:43:27;4.30;;;0.80;;
74660;SDS011;63191;39.566;2.654;2023-11-25T01:45:53;6.30;;;1.00;;
74660;SDS011;63191;39.566;2.654;2023-11-25T01:48:21;5.90;;;0.70;;
74660;SDS011;63191;39.566;2.654;2023-11-25T01:50:48;8.10;;;1.00;;
74660;SDS011;63191;39.566;2.654;2023-11-25T01:53:14;6.90;;;0.60;;
74660;SDS011;63191;39.566;2.654;2023-11-25T01:55:44;5.90;;;1.10;;
74660;SDS011;63191;39.566;2.654;2023-11-25T01:58:11;4.70;;;0.70;;
74660;SDS011;63191;39.566;2.654;2023-11-25T02:00:44;5.80;;;0.60;;
74660;SDS011;63191;39.566;2.654;2023-11-25T02:03:13;7.20;;;0.80;;
74660;SDS011;63191;39.566;2.654;2023-11-25T02:05:39;9.10;;;1.00;;
74660;SDS011;63191;39.566;2.654;2023-11-25T02:08:08;6.00;;;0.70;;
74660;SDS011;63191;39.566;2.654;2023-11-25T02:10:34;5.40;;;0.80;;
74660;SDS011;63191;39.566;2.654;2023-11-25T02:13:00;6.90;;;1.00;;
74660;SDS011;63191;39.566;2.654;2023-11-25T02:15:33;6.50;;;0.70;;
74660;SDS011;63191;39.566;2.654;2023-11-25T02:18:02;5.10;;;0.90;;
74660;SDS011;63191;39.566;2.654;2023-11-25T02:20:35;4.90;;;1.00;;
74660;SDS011;63191;39.566;2.654;2023-11-25T02:23:01;5.90;;;0.50;;
74660;SDS011;63191;39.566;2.654;2023-11-25T02:25:28;4.00;;;0.60;;
74660;SDS011;63191;39.566;2.654;2023-11-25T02:27:54;5.90;;;0.70;;
74660;SDS011;63191;39.566;2.654;2023-11-25T02:30:23;7.70;;;0.70;;
74660;SDS011;63191;39.566;2.654;2023-11-25T02:32:49;4.10;;;0.60;;
74660;SDS011;63191;39.566;2.654;2023-11-25T02:35:15;6.50;;;0.60;;
74660;SDS011;63191;39.566;2.654;2023-11-25T02:37:45;6.70;;;0.80;;
74660;SDS011;63191;39.566;2.654;2023-11-25T02:40:12;7.60;;;0.60;;
74660;SDS011;63191;39.566;2.654;2023-11-25T02:42:42;6.50;;;0.90;;
74660;SDS011;63191;39.566;2.654;2023-11-25T02:45:12;4.80;;;0.90;;
74660;SDS011;63191;39.566;2.654;2023-11-25T02:47:41;5.20;;;0.90;;
74660;SDS011;63191;39.566;2.654;2023-11-25T02:50:06;6.60;;;0.80;;
74660;SDS011;63191;39.566;2.654;2023-11-25T02:52:33;4.70;;;0.60;;
74660;SDS011;63191;39.566;2.654;2023-11-25T02:54:59;5.60;;;0.80;;
74660;SDS011;63191;39.566;2.654;2023-11-25T02:57:24;5.90;;;0.90;;
74660;SDS011;63191;39.566;2.654;2023-11-25T02:59:50;6.60;;;0.90;;
74660;SDS011;63191;39.566;2.654;2023-11-25T03:02:15;4.60;;;0.70;;
74660;SDS011;63191;39.566;2.654;2023-11-25T03:04:41;7.50;;;0.90;;
74660;SDS011;63191;39.566;2.654;2023-11-25T03:07:10;7.10;;;0.70;;
74660;SDS011;63191;39.566;2.654;2023-11-25T03:09:40;6.40;;;0.90;;
74660;SDS011;63191;39.566;2.654;2023-11-25T03:12:08;6.80;;;1.00;;
74660;SDS011;63191;39.566;2.654;2023-11-25T03:14:35;4.80;;;0.50;;
74660;SDS011;63191;39.566;2.654;2023-11-25T03:17:00;4.60;;;0.80;;
74660;SDS011;63191;39.566;2.654;2023-11-25T03:19:26;8.90;;;1.10;;
74660;SDS011;63191;39.566;2.654;2023-11-25T03:21:54;5.60;;;0.90;;
74660;SDS011;63191;39.566;2.654;2023-11-25T03:24:20;8.10;;;1.30;;
74660;SDS011;63191;39.566;2.654;2023-11-25T03:26:50;6.10;;;1.00;;
74660;SDS011;63191;39.566;2.654;2023-11-25T03:29:15;3.60;;;0.80;;
74660;SDS011;63191;39.566;2.654;2023-11-25T03:31:44;5.90;;;0.80;;
74660;SDS011;63191;39.566;2.654;2023-11-25T03:34:09;10.90;;;0.80;;
74660;SDS011;63191;39.566;2.654;2023-11-25T03:36:35;8.00;;;0.80;;
74660;SDS011;63191;39.566;2.654;2023-11-25T03:39:01;7.40;;;1.20;;
74660;SDS011;63191;39.566;2.654;2023-11-25T03:41:30;5.70;;;1.00;;
74660;SDS011;63191;39.566;2.654;2023-11-25T03:43:58;9.20;;;1.00;;
74660;SDS011;63191;39.566;2.654;2023-11-25T03:46:26;6.90;;;1.10;;
74660;SDS011;63191;39.566;2.654;2023-11-25T03:48:52;9.80;;;1.10;;
74660;SDS011;63191;39.566;2.654;2023-11-25T03:51:19;7.10;;;1.20;;
74660;SDS011;63191;39.566;2.654;2023-11-25T03:53:45;7.70;;;1.10;;
74660;SDS011;63191;39.566;2.654;2023-11-25T03:56:11;6.70;;;0.80;;
74660;SDS011;63191;39.566;2.654;2023-11-25T03:58:39;7.50;;;1.00;;
74660;SDS011;63191;39.566;2.654;2023-11-25T04:01:04;9.10;;;1.10;;
74660;SDS011;63191;39.566;2.654;2023-11-25T04:03:30;5.40;;;1.10;;
74660;SDS011;63191;39.566;2.654;2023-11-25T04:05:57;7.10;;;1.20;;
74660;SDS011;63191;39.566;2.654;2023-11-25T04:08:23;9.00;;;1.10;;
74660;SDS011;63191;39.566;2.654;2023-11-25T04:10:49;5.40;;;0.90;;
74660;SDS011;63191;39.566;2.654;2023-11-25T04:13:16;6.30;;;1.10;;
74660;SDS011;63191;39.566;2.654;2023-11-25T04:15:41;5.50;;;1.00;;
74660;SDS011;63191;39.566;2.654;2023-11-25T04:18:07;6.00;;;0.90;;
74660;SDS011;63191;39.566;2.654;2023-11-25T04:20:32;7.80;;;1.10;;
74660;SDS011;63191;39.566;2.654;2023-11-25T04:22:58;5.00;;;1.10;;
74660;SDS011;63191;39.566;2.654;2023-11-25T04:25:31;5.20;;;1.00;;
74660;SDS011;63191;39.566;2.654;2023-11-25T04:27:56;4.80;;;1.30;;
74660;SDS011;63191;39.566;2.654;2023-11-25T04:30:22;5.40;;;1.20;;
74660;SDS011;63191;39.566;2.654;2023-11-25T04:32:48;8.40;;;1.40;;
74660;SDS011;63191;39.566;2.654;2023-11-25T04:35:17;6.40;;;1.00;;
74660;SDS011;63191;39.566;2.654;2023-11-25T04:37:43;7.50;;;0.90;;
74660;SDS011;63191;39.566;2.654;2023-11-25T04:40:13;7.10;;;1.00;;
74660;SDS011;63191;39.566;2.654;2023-11-25T04:42:41;6.20;;;1.70;;
74660;SDS011;63191;39.566;2.654;2023-11-25T04:45:09;6.90;;;1.00;;
74660;SDS011;63191;39.566;2.654;2023-11-25T04:47:45;7.60;;;1.40;;
74660;SDS011;63191;39.566;2.654;2023-11-25T04:50:12;6.70;;;1.30;;
74660;SDS011;63191;39.566;2.654;2023-11-25T04:52:38;10.90;;;1.80;;
74660;SDS011;63191;39.566;2.654;2023-11-25T04:55:05;10.00;;;1.20;;
74660;SDS011;63191;39.566;2.654;2023-11-25T04:57:35;7.50;;;1.50;;
74660;SDS011;63191;39.566;2.654;2023-11-25T05:00:01;6.80;;;0.90;;
74660;SDS011;63191;39.566;2.654;2023-11-25T05:02:29;9.60;;;1.10;;
74660;SDS011;63191;39.566;2.654;2023-11-25T05:04:54;6.90;;;1.00;;
74660;SDS011;63191;39.566;2.654;2023-11-25T05:07:20;10.30;;;1.70;;
74660;SDS011;63191;39.566;2.654;2023-11-25T05:09:46;9.60;;;1.50;;
74660;SDS011;63191;39.566;2.654;2023-11-25T05:12:12;9.10;;;1.20;;
74660;SDS011;63191;39.566;2.654;2023-11-25T05:14:39;8.70;;;1.40;;
74660;SDS011;63191;39.566;2.654;2023-11-25T05:17:06;9.80;;;1.30;;
74660;SDS011;63191;39.566;2.654;2023-11-25T05:19:31;6.20;;;1.00;;
74660;SDS011;63191;39.566;2.654;2023-11-25T05:21:57;7.70;;;1.10;;
74660;SDS011;63191;39.566;2.654;2023-11-25T05:24:23;11.10;;;1.30;;
74660;SDS011;63191;39.566;2.654;2023-11-25T05:26:48;5.80;;;0.90;;
74660;SDS011;63191;39.566;2.654;2023-11-25T05:29:14;10.10;;;1.60;;
74660;SDS011;63191;39.566;2.654;2023-11-25T05:31:40;8.50;;;1.30;;
74660;SDS011;63191;39.566;2.654;2023-11-25T05:34:05;9.50;;;1.40;;
74660;SDS011;63191;39.566;2.654;2023-11-25T05:36:31;7.40;;;1.60;;
74660;SDS011;63191;39.566;2.654;2023-11-25T05:38:58;9.80;;;1.50;;
74660;SDS011;63191;39.566;2.654;2023-11-25T05:41:25;8.20;;;1.60;;
74660;SDS011;63191;39.566;2.654;2023-11-25T05:43:52;8.30;;;1.50;;
74660;SDS011;63191;39.566;2.654;2023-11-25T05:46:24;7.90;;;1.20;;
74660;SDS011;63191;39.566;2.654;2023-11-25T05:48:53;6.20;;;1.30;;
74660;SDS011;63191;39.566;2.654;2023-11-25T05:51:19;9.00;;;1.30;;
74660;SDS011;63191;39.566;2.654;2023-11-25T05:53:45;6.70;;;1.50;;
74660;SDS011;63191;39.566;2.654;2023-11-25T05:56:10;3.70;;;1.00;;
74660;SDS011;63191;39.566;2.654;2023-11-25T05:58:36;4.60;;;0.90;;
74660;SDS011;63191;39.566;2.654;2023-11-25T06:01:02;5.20;;;1.30;;
74660;SDS011;63191;39.566;2.654;2023-11-25T06:03:28;7.10;;;1.10;;
74660;SDS011;63191;39.566;2.654;2023-11-25T06:05:54;6.50;;;1.00;;
74660;SDS011;63191;39.566;2.654;2023-11-25T06:08:20;7.00;;;1.10;;
74660;SDS011;63191;39.566;2.654;2023-11-25T06:10:46;6.30;;;1.10;;
74660;SDS011;63191;39.566;2.654;2023-11-25T06:13:15;6.80;;;1.10;;
74660;SDS011;63191;39.566;2.654;2023-11-25T06:15:41;7.40;;;1.10;;
74660;SDS011;63191;39.566;2.654;2023-11-25T06:18:07;8.00;;;1.00;;
74660;SDS011;63191;39.566;2.654;2023-11-25T06:20:38;6.70;;;1.00;;
74660;SDS011;63191;39.566;2.654;2023-11-25T06:23:04;5.10;;;0.90;;
74660;SDS011;63191;39.566;2.654;2023-11-25T06:25:29;8.20;;;1.10;;
74660;SDS011;63191;39.566;2.654;2023-11-25T06:27:55;8.90;;;1.30;;
74660;SDS011;63191;39.566;2.654;2023-11-25T06:30:21;7.90;;;1.00;;
74660;SDS011;63191;39.566;2.654;2023-11-25T06:32:50;5.00;;;1.10;;
74660;SDS011;63191;39.566;2.654;2023-11-25T06:35:15;10.00;;;2.00;;
74660;SDS011;63191;39.566;2.654;2023-11-25T06:37:41;8.10;;;1.30;;
74660;SDS011;63191;39.566;2.654;2023-11-25T06:40:08;6.50;;;1.50;;
74660;SDS011;63191;39.566;2.654;2023-11-25T06:42:38;5.30;;;0.90;;
74660;SDS011;63191;39.566;2.654;2023-11-25T06:45:05;12.20;;;1.40;;
74660;SDS011;63191;39.566;2.654;2023-11-25T06:47:31;6.30;;;1.00;;
74660;SDS011;63191;39.566;2.654;2023-11-25T06:49:57;6.90;;;1.30;;
74660;SDS011;63191;39.566;2.654;2023-11-25T06:52:23;9.50;;;1.40;;
74660;SDS011;63191;39.566;2.654;2023-11-25T06:54:49;6.70;;;1.30;;
74660;SDS011;63191;39.566;2.654;2023-11-25T06:57:14;9.80;;;1.50;;
74660;SDS011;63191;39.566;2.654;2023-11-25T06:59:40;9.20;;;2.30;;
74660;SDS011;63191;39.566;2.654;2023-11-25T07:02:11;10.10;;;2.00;;
74660;SDS011;63191;39.566;2.654;2023-11-25T07:04:37;10.70;;;1.80;;
74660;SDS011;63191;39.566;2.654;2023-11-25T07:07:03;9.00;;;1.80;;
74660;SDS011;63191;39.566;2.654;2023-11-25T07:09:29;13.20;;;2.10;;
74660;SDS011;63191;39.566;2.654;2023-11-25T07:11:55;6.90;;;1.70;;
74660;SDS011;63191;39.566;2.654;2023-11-25T07:14:21;11.30;;;1.60;;
74660;SDS011;63191;39.566;2.654;2023-11-25T07:16:47;10.00;;;2.50;;
74660;SDS011;63191;39.566;2.654;2023-11-25T07:19:13;8.90;;;1.60;;
74660;SDS011;63191;39.566;2.654;2023-11-25T07:21:39;9.20;;;2.00;;
74660;SDS011;63191;39.566;2.654;2023-11-25T07:24:05;13.60;;;2.30;;
74660;SDS011;63191;39.566;2.654;2023-11-25T07:26:32;8.40;;;1.90;;
74660;SDS011;63191;39.566;2.654;2023-11-25T07:29:05;10.90;;;2.10;;
74660;SDS011;63191;39.566;2.654;2023-11-25T07:31:31;11.30;;;2.40;;
74660;SDS011;63191;39.566;2.654;2023-11-25T07:33:57;11.70;;;2.00;;
74660;SDS011;63191;39.566;2.654;2023-11-25T07:36:23;9.40;;;2.00;;
74660;SDS011;63191;39.566;2.654;2023-11-25T07:38:49;10.40;;;2.30;;
74660;SDS011;63191;39.566;2.654;2023-11-25T07:41:17;10.50;;;1.90;;
74660;SDS011;63191;39.566;2.654;2023-11-25T07:43:43;12.40;;;2.90;;
74660;SDS011;63191;39.566;2.654;2023-11-25T07:46:08;13.00;;;2.50;;
74660;SDS011;63191;39.566;2.654;2023-11-25T07:48:36;12.30;;;2.90;;
74660;SDS011;63191;39.566;2.654;2023-11-25T07:51:02;10.90;;;3.70;;
74660;SDS011;63191;39.566;2.654;2023-11-25T07:53:28;14.90;;;2.80;;
74660;SDS011;63191;39.566;2.654;2023-11-25T07:55:54;12.60;;;2.40;;
74660;SDS011;63191;39.566;2.654;2023-11-25T07:58:20;11.30;;;2.50;;
74660;SDS011;63191;39.566;2.654;2023-11-25T08:00:48;9.40;;;2.20;;
74660;SDS011;63191;39.566;2.654;2023-11-25T08:03:15;7.80;;;1.80;;
74660;SDS011;63191;39.566;2.654;2023-11-25T08:05:41;15.00;;;2.10;;
74660;SDS011;63191;39.566;2.654;2023-11-25T08:08:06;9.00;;;1.70;;
74660;SDS011;63191;39.566;2.654;2023-11-25T08:10:32;13.60;;;2.20;;
74660;SDS011;63191;39.566;2.654;2023-11-25T08:12:59;9.80;;;2.40;;
74660;SDS011;63191;39.566;2.654;2023-11-25T08:15:26;14.60;;;2.80;;
74660;SDS011;63191;39.566;2.654;2023-11-25T08:17:51;10.30;;;2.30;;
74660;SDS011;63191;39.566;2.654;2023-11-25T08:20:17;11.50;;;2.50;;
74660;SDS011;63191;39.566;2.654;2023-11-25T08:22:43;15.90;;;2.60;;
74660;SDS011;63191;39.566;2.654;2023-11-25T08:25:08;12.70;;;3.00;;
74660;SDS011;63191;39.566;2.654;2023-11-25T08:27:35;16.70;;;3.10;;
74660;SDS011;63191;39.566;2.654;2023-11-25T08:30:01;20.40;;;3.40;;
74660;SDS011;63191;39.566;2.654;2023-11-25T08:32:27;16.60;;;3.60;;
74660;SDS011;63191;39.566;2.654;2023-11-25T08:34:55;13.90;;;2.80;;
74660;SDS011;63191;39.566;2.654;2023-11-25T08:37:21;16.00;;;3.20;;
74660;SDS011;63191;39.566;2.654;2023-11-25T08:39:52;20.80;;;4.20;;
74660;SDS011;63191;39.566;2.654;2023-11-25T08:42:19;14.10;;;2.90;;
74660;SDS011;63191;39.566;2.654;2023-11-25T08:44:44;11.00;;;2.70;;
74660;SDS011;63191;39.566;2.654;2023-11-25T08:47:12;11.30;;;2.50;;
74660;SDS011;63191;39.566;2.654;2023-11-25T08:49:38;12.00;;;2.50;;
74660;SDS011;63191;39.566;2.654;2023-11-25T08:52:03;10.60;;;2.60;;
74660;SDS011;63191;39.566;2.654;2023-11-25T08:54:29;10.80;;;2.30;;
74660;SDS011;63191;39.566;2.654;2023-11-25T08:57:02;9.70;;;2.40;;
74660;SDS011;63191;39.566;2.654;2023-11-25T08:59:28;13.00;;;3.00;;
74660;SDS011;63191;39.566;2.654;2023-11-25T09:01:54;11.80;;;2.60;;
74660;SDS011;63191;39.566;2.654;2023-11-25T09:04:23;11.00;;;2.50;;
74660;SDS011;63191;39.566;2.654;2023-11-25T09:06:51;14.80;;;2.60;;
74660;SDS011;63191;39.566;2.654;2023-11-25T09:09:17;12.20;;;2.30;;
74660;SDS011;63191;39.566;2.654;2023-11-25T09:11:44;12.90;;;3.00;;
74660;SDS011;63191;39.566;2.654;2023-11-25T09:14:10;12.50;;;2.90;;
74660;SDS011;63191;39.566;2.654;2023-11-25T09:16:36;10.80;;;3.00;;
74660;SDS011;63191;39.566;2.654;2023-11-25T09:19:01;15.30;;;3.50;;
74660;SDS011;63191;39.566;2.654;2023-11-25T09:21:28;13.50;;;3.50;;
74660;SDS011;63191;39.566;2.654;2023-11-25T09:23:57;13.50;;;3.40;;
74660;SDS011;63191;39.566;2.654;2023-11-25T09:26:23;15.30;;;3.50;;
74660;SDS011;63191;39.566;2.654;2023-11-25T09:28:49;12.90;;;3.20;;
74660;SDS011;63191;39.566;2.654;2023-11-25T09:31:17;17.80;;;3.90;;
74660;SDS011;63191;39.566;2.654;2023-11-25T09:33:43;11.20;;;2.70;;
74660;SDS011;63191;39.566;2.654;2023-11-25T09:36:10;12.30;;;2.70;;
74660;SDS011;63191;39.566;2.654;2023-11-25T09:38:35;13.00;;;2.50;;
74660;SDS011;63191;39.566;2.654;2023-11-25T09:41:01;13.40;;;2.50;;
74660;SDS011;63191;39.566;2.654;2023-11-25T09:43:27;14.50;;;2.60;;
74660;SDS011;63191;39.566;2.654;2023-11-25T09:45:54;15.70;;;2.50;;
74660;SDS011;63191;39.566;2.654;2023-11-25T09:48:20;14.20;;;2.40;;
74660;SDS011;63191;39.566;2.654;2023-11-25T09:50:47;14.70;;;2.80;;
74660;SDS011;63191;39.566;2.654;2023-11-25T09:53:18;11.20;;;2.10;;
74660;SDS011;63191;39.566;2.654;2023-11-25T09:55:57;11.70;;;2.40;;
74660;SDS011;63191;39.566;2.654;2023-11-25T09:58:26;14.00;;;2.30;;
74660;SDS011;63191;39.566;2.654;2023-11-25T10:00:53;13.50;;;2.20;;
74660;SDS011;63191;39.566;2.654;2023-11-25T10:03:21;14.90;;;2.30;;
74660;SDS011;63191;39.566;2.654;2023-11-25T10:05:47;15.40;;;2.50;;
74660;SDS011;63191;39.566;2.654;2023-11-25T10:08:12;13.30;;;2.10;;
74660;SDS011;63191;39.566;2.654;2023-11-25T10:10:38;11.90;;;1.80;;
74660;SDS011;63191;39.566;2.654;2023-11-25T10:13:12;13.60;;;2.40;;
74660;SDS011;63191;39.566;2.654;2023-11-25T10:15:45;12.00;;;2.20;;
74660;SDS011;63191;39.566;2.654;2023-11-25T10:18:11;17.40;;;2.70;;
74660;SDS011;63191;39.566;2.654;2023-11-25T10:20:43;13.70;;;2.60;;
74660;SDS011;63191;39.566;2.654;2023-11-25T10:23:12;13.30;;;2.40;;
74660;SDS011;63191;39.566;2.654;2023-11-25T10:25:46;14.30;;;2.50;;
74660;SDS011;63191;39.566;2.654;2023-11-25T10:28:12;14.50;;;2.60;;
74660;SDS011;63191;39.566;2.654;2023-11-25T10:30:40;14.10;;;2.30;;
74660;SDS011;63191;39.566;2.654;2023-11-25T10:33:07;17.10;;;2.50;;
74660;SDS011;63191;39.566;2.654;2023-11-25T10:35:33;14.50;;;2.40;;
74660;SDS011;63191;39.566;2.654;2023-11-25T10:37:59;14.50;;;2.80;;
74660;SDS011;63191;39.566;2.654;2023-11-25T10:40:24;13.40;;;2.30;;
74660;SDS011;63191;39.566;2.654;2023-11-25T10:42:52;14.70;;;2.70;;
74660;SDS011;63191;39.566;2.654;2023-11-25T10:45:21;11.40;;;2.20;;
74660;SDS011;63191;39.566;2.654;2023-11-25T10:47:49;16.00;;;2.40;;
74660;SDS011;63191;39.566;2.654;2023-11-25T10:50:14;13.00;;;2.80;;
74660;SDS011;63191;39.566;2.654;2023-11-25T10:52:41;19.20;;;3.00;;
74660;SDS011;63191;39.566;2.654;2023-11-25T10:55:08;15.10;;;2.60;;
74660;SDS011;63191;39.566;2.654;2023-11-25T10:57:34;14.60;;;2.80;;
74660;SDS011;63191;39.566;2.654;2023-11-25T11:00:00;15.30;;;2.50;;
74660;SDS011;63191;39.566;2.654;2023-11-25T11:02:38;15.80;;;2.40;;
74660;SDS011;63191;39.566;2.654;2023-11-25T11:05:08;15.00;;;2.60;;
74660;SDS011;63191;39.566;2.654;2023-11-25T11:07:59;12.90;;;2.50;;
74660;SDS011;63191;39.566;2.654;2023-11-25T11:10:40;13.50;;;2.60;;
74660;SDS011;63191;39.566;2.654;2023-11-25T11:13:12;16.60;;;2.80;;
74660;SDS011;63191;39.566;2.654;2023-11-25T11:15:38;18.50;;;3.00;;
74660;SDS011;63191;39.566;2.654;2023-11-25T11:18:25;14.20;;;2.20;;
74660;SDS011;63191;39.566;2.654;2023-11-25T11:20:55;13.50;;;2.00;;
74660;SDS011;63191;39.566;2.654;2023-11-25T11:23:22;13.70;;;2.30;;
74660;SDS011;63191;39.566;2.654;2023-11-25T11:25:55;18.30;;;2.40;;
74660;SDS011;63191;39.566;2.654;2023-11-25T11:34:01;17.80;;;2.20;;
74660;SDS011;63191;39.566;2.654;2023-11-25T11:36:29;12.00;;;2.50;;
74660;SDS011;63191;39.566;2.654;2023-11-25T11:38:55;12.90;;;2.10;;
74660;SDS011;63191;39.566;2.654;2023-11-25T11:46:29;13.40;;;2.10;;
74660;SDS011;63191;39.566;2.654;2023-11-25T11:48:55;16.90;;;4.40;;
74660;SDS011;63191;39.566;2.654;2023-11-25T11:51:22;14.40;;;2.40;;
74660;SDS011;63191;39.566;2.654;2023-11-25T11:54:22;12.50;;;2.20;;
74660;SDS011;63191;39.566;2.654;2023-11-25T12:02:37;15.70;;;3.50;;
74660;SDS011;63191;39.566;2.654;2023-11-25T12:05:07;11.40;;;1.90;;
74660;SDS011;63191;39.566;2.654;2023-11-25T12:07:34;14.20;;;2.80;;
74660;SDS011;63191;39.566;2.654;2023-11-25T12:10:00;13.70;;;2.10;;
74660;SDS011;63191;39.566;2.654;2023-11-25T12:12:26;11.90;;;2.60;;
74660;SDS011;63191;39.566;2.654;2023-11-25T12:14:52;14.00;;;2.40;;
74660;SDS011;63191;39.566;2.654;2023-11-25T12:17:18;11.40;;;2.30;;
74660;SDS011;63191;39.566;2.654;2023-11-25T12:19:44;11.00;;;2.30;;
74660;SDS011;63191;39.566;2.654;2023-11-25T12:22:10;17.40;;;2.30;;
74660;SDS011;63191;39.566;2.654;2023-11-25T12:24:37;15.30;;;3.30;;
74660;SDS011;63191;39.566;2.654;2023-11-25T12:27:05;15.00;;;2.60;;
74660;SDS011;63191;39.566;2.654;2023-11-25T12:29:34;13.60;;;2.40;;
74660;SDS011;63191;39.566;2.654;2023-11-25T12:32:00;12.80;;;2.40;;
74660;SDS011;63191;39.566;2.654;2023-11-25T12:34:26;15.40;;;2.80;;
74660;SDS011;63191;39.566;2.654;2023-11-25T12:36:53;10.20;;;2.00;;
74660;SDS011;63191;39.566;2.654;2023-11-25T12:39:18;15.60;;;2.90;;
74660;SDS011;63191;39.566;2.654;2023-11-25T12:41:44;15.50;;;2.40;;
74660;SDS011;63191;39.566;2.654;2023-11-25T12:44:09;10.90;;;2.20;;
74660;SDS011;63191;39.566;2.654;2023-11-25T12:46:38;10.00;;;2.20;;
74660;SDS011;63191;39.566;2.654;2023-11-25T12:49:21;13.70;;;2.30;;
74660;SDS011;63191;39.566;2.654;2023-11-25T12:51:48;13.30;;;2.40;;
74660;SDS011;63191;39.566;2.654;2023-11-25T12:54:15;12.80;;;2.30;;
74660;SDS011;63191;39.566;2.654;2023-11-25T12:56:42;14.00;;;2.20;;
74660;SDS011;63191;39.566;2.654;2023-11-25T12:59:08;15.10;;;2.10;;
74660;SDS011;63191;39.566;2.654;2023-11-25T13:01:34;15.50;;;2.60;;
74660;SDS011;63191;39.566;2.654;2023-11-25T13:04:01;13.50;;;2.20;;
74660;SDS011;63191;39.566;2.654;2023-11-25T13:06:29;17.20;;;2.50;;
74660;SDS011;63191;39.566;2.654;2023-11-25T13:08:54;13.70;;;2.00;;
74660;SDS011;63191;39.566;2.654;2023-11-25T13:11:20;17.30;;;2.30;;
74660;SDS011;63191;39.566;2.654;2023-11-25T13:13:46;12.20;;;2.30;;
74660;SDS011;63191;39.566;2.654;2023-11-25T13:16:11;14.60;;;2.70;;
74660;SDS011;63191;39.566;2.654;2023-11-25T13:18:46;12.80;;;2.40;;
74660;SDS011;63191;39.566;2.654;2023-11-25T13:21:13;15.80;;;2.70;;
74660;SDS011;63191;39.566;2.654;2023-11-25T13:23:38;18.90;;;5.10;;
74660;SDS011;63191;39.566;2.654;2023-11-25T13:26:05;16.00;;;3.20;;
74660;SDS011;63191;39.566;2.654;2023-11-25T13:28:32;13.10;;;2.70;;
74660;SDS011;63191;39.566;2.654;2023-11-25T13:30:59;12.70;;;2.60;;
74660;SDS011;63191;39.566;2.654;2023-11-25T13:33:25;12.80;;;2.20;;
74660;SDS011;63191;39.566;2.654;2023-11-25T13:35:52;14.40;;;2.80;;
74660;SDS011;63191;39.566;2.654;2023-11-25T13:38:17;13.80;;;2.70;;
74660;SDS011;63191;39.566;2.654;2023-11-25T13:40:43;12.00;;;2.30;;
74660;SDS011;63191;39.566;2.654;2023-11-25T13:43:10;16.70;;;2.50;;
74660;SDS011;63191;39.566;2.654;2023-11-25T13:45:45;17.50;;;2.60;;
74660;SDS011;63191;39.566;2.654;2023-11-25T13:48:11;16.90;;;2.90;;
74660;SDS011;63191;39.566;2.654;2023-11-25T13:50:40;15.00;;;2.80;;
74660;SDS011;63191;39.566;2.654;2023-11-25T13:53:05;14.90;;;2.20;;
74660;SDS011;63191;39.566;2.654;2023-11-25T13:55:31;12.20;;;2.40;;
74660;SDS011;63191;39.566;2.654;2023-11-25T13:58:02;12.90;;;2.70;;
74660;SDS011;63191;39.566;2.654;2023-11-25T14:00:31;12.00;;;2.30;;
74660;SDS011;63191;39.566;2.654;2023-11-25T14:02:56;13.50;;;2.20;;
74660;SDS011;63191;39.566;2.654;2023-11-25T14:05:24;15.00;;;2.30;;
74660;SDS011;63191;39.566;2.654;2023-11-25T14:07:51;13.00;;;2.10;;
74660;SDS011;63191;39.566;2.654;2023-11-25T14:10:18;10.80;;;2.20;;
74660;SDS011;63191;39.566;2.654;2023-11-25T14:12:44;13.90;;;2.40;;
74660;SDS011;63191;39.566;2.654;2023-11-25T14:15:10;16.20;;;2.80;;
74660;SDS011;63191;39.566;2.654;2023-11-25T14:17:36;16.60;;;2.60;;
74660;SDS011;63191;39.566;2.654;2023-11-25T14:20:05;13.90;;;2.70;;
74660;SDS011;63191;39.566;2.654;2023-11-25T14:22:44;15.50;;;2.40;;
74660;SDS011;63191;39.566;2.654;2023-11-25T14:25:11;18.20;;;3.00;;
74660;SDS011;63191;39.566;2.654;2023-11-25T14:27:39;18.10;;;2.30;;
74660;SDS011;63191;39.566;2.654;2023-11-25T14:30:08;15.80;;;2.50;;
74660;SDS011;63191;39.566;2.654;2023-11-25T14:32:34;14.30;;;2.40;;
74660;SDS011;63191;39.566;2.654;2023-11-25T14:35:00;10.60;;;1.90;;
74660;SDS011;63191;39.566;2.654;2023-11-25T14:37:26;16.10;;;2.20;;
74660;SDS011;63191;39.566;2.654;2023-11-25T14:39:53;13.40;;;2.40;;
74660;SDS011;63191;39.566;2.654;2023-11-25T14:42:19;12.60;;;2.40;;
74660;SDS011;63191;39.566;2.654;2023-11-25T14:44:46;12.90;;;1.70;;
74660;SDS011;63191;39.566;2.654;2023-11-25T14:47:15;16.30;;;2.50;;
74660;SDS011;63191;39.566;2.654;2023-11-25T14:49:41;16.30;;;2.20;;
74660;SDS011;63191;39.566;2.654;2023-11-25T14:52:06;15.30;;;2.50;;
74660;SDS011;63191;39.566;2.654;2023-11-25T14:54:32;12.80;;;2.10;;
74660;SDS011;63191;39.566;2.654;2023-11-25T14:56:58;19.20;;;2.80;;